Bathurst, Canada
Current Conditions -  °F | °C
As of 8:00 AM on Friday 28 Nov 2014 (Local Time) from CZBF Reporting Station
Snow Showers Snow Showers  
Wind Chill:   Ceiling: 10000
Heat Index: 14°   Visibility: 10mi
Dew Point:   Wind: 6mph
Humidity: 79%   Direction: 300°WNW
Pressure: 30.03"   Gusts: NA
Location:  47.62°N, 65.65°W
Report Text: CZBF 281200Z 30005KT 10SM -SHSN SCT016 BKN100 M10/M13 A3003 RMK SC3AC3 SLP172
Loading
Personal Weather Stations






























Interactive Weather Map New forecast layout! Learn more

10-Day Weather Forecast

Advertisements
Track Severe Weather on mobile